Airfield :
LOGIN :

Register | Disclaimer

   EN    FR    IT 

 










Legend :    VFR   Marginal VFR   IFR   Intensive IFR   Very Intensive IFR
Visi :
Ceiling :
>= 8 km
>= 3000ft
5 to 8 km
1000 to 3000 ft
1500m to 5 km
500 to 1000 ft
800 to 1500m
200 to 500 ft
< 800m
< 200 ft
Symbols :   Thunderstorms  Fog  Heavy snow  Heavy precipitations  Wind > 20 kt
SIGMETs :     Misc.  Thunderstorms  Icing  Turbulence  Mountain Waves  Volcanic Ashes







- Airport Elevation : 392 ft
- IATA code : CDG
- Download approach charts


LFPG - Paris-Aeroport Charles De Gaulle

CURRENT METAR :
  • 191930Z 17008G23KT 9999 FEW036 SCT050 17/13 Q1007

EXPIRED METARs :
  • 191900Z 17007KT 9999 BKN036 SCT043 18/13 Q1008
  • 191830Z 19009KT 120V210 9999 SCT036 SCT046 BKN063 18/12 Q1008
  • 191800Z 20007KT 9999 FEW039 SCT096 19/12 Q1008
  • 191730Z 20011KT 9999 FEW039 SCT046 19/12 Q1008
  • 191700Z 22013KT 200V300 9999 FEW031TCU SCT039 20/13 Q1008

TAF TAF LFPG
Valid from the 19 at 18:00 until the 21 at 00:00 UTC


191700Z 1918/2024 20010KT 9999 SCT040
TEMPO 1923/2004 20015G25KT
PROB40
TEMPO 2001/2003 23015G30KT 4000 RA BKN013 BKN030
TEMPO 2012/2015 23015G25KT TX18/1918Z TN13/2006Z
ATIS : +33 1 48 62 10 92
No reported NOTAMs for that airfield.
1 SIGMET reported for the Paris FIR (LFFF) :
 
Severe turbulence
LFFF SIGMET 1 VALID 191900/192300 LFPW
LFFF PARIS FIR/UIR SEV TURB FCST W OF LINE N4815 W00015 - N5015 E00030 SFC/FL060 MOV NE 30KT NC=



MET'MAP, your aeronautical weather chart ! - Copyright ORBIFLY December 2007 - Disclaimer

ORBIFLY MET'MAP TEAM :

Programming & Development : Alexandra Zaïnal
Concept & Development : Baudouin d'Aumeries
Co-Development & Prog : Marc-Olivier Méhu
Technical & hardware support : Manuel Goepfert

Contact : metmap@orbifly.com




SOURCES & CREDITS :

   NOAA